sensor_id;sensor_type;location;lat;lon;timestamp;P1;durP1;ratioP1;P2;durP2;ratioP2
76459;SDS011;65299;46.084;18.762;2023-07-31T05:24:28;2.80;;;1.38;;
76459;SDS011;65299;46.084;18.762;2023-07-31T05:27:30;2.23;;;1.30;;
76459;SDS011;65299;46.084;18.762;2023-07-31T05:30:31;1.67;;;1.20;;
76459;SDS011;65299;46.084;18.762;2023-07-31T05:33:31;1.67;;;1.40;;
76459;SDS011;65299;46.084;18.762;2023-07-31T05:36:32;2.80;;;1.30;;
76459;SDS011;65299;46.084;18.762;2023-07-31T05:39:33;2.30;;;1.30;;
76459;SDS011;65299;46.084;18.762;2023-07-31T05:42:33;3.33;;;1.50;;
76459;SDS011;65299;46.084;18.762;2023-07-31T05:45:34;2.50;;;1.50;;
76459;SDS011;65299;46.084;18.762;2023-07-31T05:48:35;2.50;;;1.30;;
76459;SDS011;65299;46.084;18.762;2023-07-31T05:51:36;3.27;;;1.60;;
76459;SDS011;65299;46.084;18.762;2023-07-31T05:54:36;1.60;;;1.27;;
76459;SDS011;65299;46.084;18.762;2023-07-31T05:57:37;1.80;;;1.33;;
76459;SDS011;65299;46.084;18.762;2023-07-31T06:00:37;1.77;;;1.27;;
76459;SDS011;65299;46.084;18.762;2023-07-31T06:03:37;3.53;;;1.50;;
76459;SDS011;65299;46.084;18.762;2023-07-31T06:06:38;2.20;;;1.20;;
76459;SDS011;65299;46.084;18.762;2023-07-31T06:09:38;4.50;;;2.20;;
76459;SDS011;65299;46.084;18.762;2023-07-31T06:12:39;5.37;;;1.97;;
76459;SDS011;65299;46.084;18.762;2023-07-31T06:15:39;3.80;;;1.35;;
76459;SDS011;65299;46.084;18.762;2023-07-31T06:18:39;2.30;;;1.40;;
76459;SDS011;65299;46.084;18.762;2023-07-31T06:21:40;2.20;;;1.40;;
76459;SDS011;65299;46.084;18.762;2023-07-31T06:24:43;1.33;;;1.10;;
76459;SDS011;65299;46.084;18.762;2023-07-31T06:27:44;3.65;;;1.85;;
76459;SDS011;65299;46.084;18.762;2023-07-31T06:30:44;4.33;;;1.20;;
76459;SDS011;65299;46.084;18.762;2023-07-31T06:33:44;2.50;;;1.30;;
76459;SDS011;65299;46.084;18.762;2023-07-31T06:36:45;2.20;;;1.10;;
76459;SDS011;65299;46.084;18.762;2023-07-31T06:39:45;2.57;;;1.30;;
76459;SDS011;65299;46.084;18.762;2023-07-31T06:42:46;5.28;;;1.33;;
76459;SDS011;65299;46.084;18.762;2023-07-31T06:45:46;2.20;;;1.00;;
76459;SDS011;65299;46.084;18.762;2023-07-31T06:48:48;2.92;;;1.13;;
76459;SDS011;65299;46.084;18.762;2023-07-31T06:51:49;2.37;;;1.00;;
76459;SDS011;65299;46.084;18.762;2023-07-31T06:58:03;2.47;;;1.10;;
76459;SDS011;65299;46.084;18.762;2023-07-31T07:01:04;2.28;;;1.13;;
76459;SDS011;65299;46.084;18.762;2023-07-31T07:04:04;3.23;;;0.87;;
76459;SDS011;65299;46.084;18.762;2023-07-31T07:07:05;2.67;;;1.53;;
76459;SDS011;65299;46.084;18.762;2023-07-31T07:10:05;2.25;;;1.35;;
76459;SDS011;65299;46.084;18.762;2023-07-31T07:13:07;5.20;;;1.57;;
76459;SDS011;65299;46.084;18.762;2023-07-31T07:16:07;2.67;;;1.67;;
76459;SDS011;65299;46.084;18.762;2023-07-31T07:19:08;2.60;;;1.20;;
76459;SDS011;65299;46.084;18.762;2023-07-31T07:22:08;3.20;;;1.70;;
76459;SDS011;65299;46.084;18.762;2023-07-31T07:25:10;3.03;;;1.73;;
76459;SDS011;65299;46.084;18.762;2023-07-31T07:28:10;2.57;;;0.93;;
76459;SDS011;65299;46.084;18.762;2023-07-31T07:31:11;2.05;;;1.20;;
76459;SDS011;65299;46.084;18.762;2023-07-31T07:34:11;2.17;;;1.50;;
76459;SDS011;65299;46.084;18.762;2023-07-31T07:37:12;4.10;;;1.87;;
76459;SDS011;65299;46.084;18.762;2023-07-31T07:40:12;1.43;;;1.00;;
76459;SDS011;65299;46.084;18.762;2023-07-31T07:43:13;2.85;;;1.48;;
76459;SDS011;65299;46.084;18.762;2023-07-31T07:46:13;5.00;;;1.30;;
76459;SDS011;65299;46.084;18.762;2023-07-31T07:49:13;3.60;;;1.00;;
76459;SDS011;65299;46.084;18.762;2023-07-31T07:52:14;2.07;;;1.10;;
76459;SDS011;65299;46.084;18.762;2023-07-31T07:55:14;2.47;;;1.20;;
76459;SDS011;65299;46.084;18.762;2023-07-31T07:58:14;1.95;;;1.00;;
76459;SDS011;65299;46.084;18.762;2023-07-31T08:01:15;3.33;;;1.00;;
76459;SDS011;65299;46.084;18.762;2023-07-31T08:04:16;3.08;;;1.40;;
76459;SDS011;65299;46.084;18.762;2023-07-31T08:07:16;2.27;;;1.30;;
76459;SDS011;65299;46.084;18.762;2023-07-31T08:10:16;3.33;;;1.27;;
76459;SDS011;65299;46.084;18.762;2023-07-31T08:13:17;1.63;;;1.20;;
76459;SDS011;65299;46.084;18.762;2023-07-31T08:16:17;2.30;;;1.40;;
76459;SDS011;65299;46.084;18.762;2023-07-31T08:19:18;2.05;;;1.20;;
76459;SDS011;65299;46.084;18.762;2023-07-31T08:22:18;1.20;;;1.10;;
76459;SDS011;65299;46.084;18.762;2023-07-31T08:25:18;2.03;;;1.10;;
76459;SDS011;65299;46.084;18.762;2023-07-31T08:28:19;2.50;;;1.20;;
76459;SDS011;65299;46.084;18.762;2023-07-31T08:31:19;2.30;;;1.20;;
76459;SDS011;65299;46.084;18.762;2023-07-31T08:34:20;3.67;;;1.40;;
76459;SDS011;65299;46.084;18.762;2023-07-31T08:37:20;2.50;;;1.10;;
76459;SDS011;65299;46.084;18.762;2023-07-31T08:40:21;2.70;;;1.33;;
76459;SDS011;65299;46.084;18.762;2023-07-31T08:43:27;3.70;;;1.13;;
76459;SDS011;65299;46.084;18.762;2023-07-31T08:46:28;1.83;;;1.02;;
76459;SDS011;65299;46.084;18.762;2023-07-31T08:49:29;1.80;;;1.17;;
76459;SDS011;65299;46.084;18.762;2023-07-31T08:52:30;2.67;;;1.45;;
76459;SDS011;65299;46.084;18.762;2023-07-31T08:55:32;2.83;;;1.60;;
76459;SDS011;65299;46.084;18.762;2023-07-31T08:58:33;4.03;;;1.35;;
76459;SDS011;65299;46.084;18.762;2023-07-31T09:01:37;1.90;;;1.00;;
76459;SDS011;65299;46.084;18.762;2023-07-31T09:04:43;2.30;;;1.30;;
76459;SDS011;65299;46.084;18.762;2023-07-31T09:07:45;1.67;;;1.30;;
76459;SDS011;65299;46.084;18.762;2023-07-31T09:10:47;4.22;;;1.10;;
76459;SDS011;65299;46.084;18.762;2023-07-31T09:13:50;1.40;;;1.10;;
76459;SDS011;65299;46.084;18.762;2023-07-31T09:16:54;2.27;;;1.27;;
76459;SDS011;65299;46.084;18.762;2023-07-31T09:19:56;1.48;;;0.77;;
76459;SDS011;65299;46.084;18.762;2023-07-31T09:22:57;2.72;;;1.27;;
76459;SDS011;65299;46.084;18.762;2023-07-31T09:26:06;1.20;;;1.10;;
76459;SDS011;65299;46.084;18.762;2023-07-31T09:29:06;3.17;;;1.20;;
76459;SDS011;65299;46.084;18.762;2023-07-31T09:32:18;1.73;;;1.05;;
76459;SDS011;65299;46.084;18.762;2023-07-31T09:38:20;0.80;;;0.80;;
76459;SDS011;65299;46.084;18.762;2023-07-31T09:41:21;3.00;;;0.90;;
76459;SDS011;65299;46.084;18.762;2023-07-31T09:44:21;2.40;;;0.90;;
76459;SDS011;65299;46.084;18.762;2023-07-31T09:47:36;1.55;;;0.90;;
76459;SDS011;65299;46.084;18.762;2023-07-31T09:50:37;2.70;;;1.00;;
76459;SDS011;65299;46.084;18.762;2023-07-31T09:53:39;2.30;;;1.00;;
76459;SDS011;65299;46.084;18.762;2023-07-31T09:56:43;1.30;;;0.83;;
76459;SDS011;65299;46.084;18.762;2023-07-31T09:59:46;1.42;;;1.10;;
76459;SDS011;65299;46.084;18.762;2023-07-31T10:02:49;2.17;;;0.88;;
76459;SDS011;65299;46.084;18.762;2023-07-31T10:05:52;3.08;;;1.20;;
76459;SDS011;65299;46.084;18.762;2023-07-31T10:08:55;2.13;;;0.90;;
76459;SDS011;65299;46.084;18.762;2023-07-31T10:11:59;1.57;;;1.10;;
76459;SDS011;65299;46.084;18.762;2023-07-31T10:15:02;2.78;;;0.75;;
76459;SDS011;65299;46.084;18.762;2023-07-31T10:18:05;2.30;;;1.02;;
76459;SDS011;65299;46.084;18.762;2023-07-31T10:21:06;1.40;;;1.00;;
76459;SDS011;65299;46.084;18.762;2023-07-31T10:24:07;2.30;;;1.10;;
76459;SDS011;65299;46.084;18.762;2023-07-31T10:27:09;2.35;;;0.95;;
76459;SDS011;65299;46.084;18.762;2023-07-31T10:30:15;1.65;;;0.80;;
76459;SDS011;65299;46.084;18.762;2023-07-31T10:33:17;3.40;;;1.00;;
76459;SDS011;65299;46.084;18.762;2023-07-31T10:36:20;3.33;;;1.02;;
76459;SDS011;65299;46.084;18.762;2023-07-31T10:39:33;2.60;;;1.00;;
76459;SDS011;65299;46.084;18.762;2023-07-31T10:42:47;2.97;;;1.20;;
76459;SDS011;65299;46.084;18.762;2023-07-31T10:45:52;1.98;;;1.20;;
76459;SDS011;65299;46.084;18.762;2023-07-31T10:49:00;2.28;;;1.10;;
76459;SDS011;65299;46.084;18.762;2023-07-31T10:52:03;1.80;;;1.07;;
76459;SDS011;65299;46.084;18.762;2023-07-31T10:55:23;2.35;;;1.08;;
76459;SDS011;65299;46.084;18.762;2023-07-31T10:58:23;2.53;;;1.42;;
76459;SDS011;65299;46.084;18.762;2023-07-31T11:01:24;4.53;;;1.20;;
76459;SDS011;65299;46.084;18.762;2023-07-31T11:05:05;2.35;;;1.10;;
76459;SDS011;65299;46.084;18.762;2023-07-31T11:08:11;2.38;;;1.02;;
76459;SDS011;65299;46.084;18.762;2023-07-31T11:11:12;1.42;;;1.00;;
76459;SDS011;65299;46.084;18.762;2023-07-31T11:14:13;4.40;;;1.73;;
76459;SDS011;65299;46.084;18.762;2023-07-31T11:17:14;3.30;;;1.00;;
76459;SDS011;65299;46.084;18.762;2023-07-31T11:20:14;2.37;;;1.20;;
76459;SDS011;65299;46.084;18.762;2023-07-31T11:23:16;2.37;;;1.00;;
76459;SDS011;65299;46.084;18.762;2023-07-31T11:26:17;4.60;;;1.08;;
76459;SDS011;65299;46.084;18.762;2023-07-31T11:29:18;3.78;;;1.10;;
76459;SDS011;65299;46.084;18.762;2023-07-31T11:32:19;2.70;;;1.10;;
76459;SDS011;65299;46.084;18.762;2023-07-31T11:35:20;2.30;;;1.00;;
76459;SDS011;65299;46.084;18.762;2023-07-31T11:38:21;1.97;;;0.90;;
76459;SDS011;65299;46.084;18.762;2023-07-31T11:41:25;2.80;;;1.23;;
76459;SDS011;65299;46.084;18.762;2023-07-31T11:44:37;3.38;;;0.93;;
76459;SDS011;65299;46.084;18.762;2023-07-31T11:47:38;2.50;;;1.17;;
76459;SDS011;65299;46.084;18.762;2023-07-31T11:50:38;1.17;;;1.03;;
76459;SDS011;65299;46.084;18.762;2023-07-31T11:53:44;1.60;;;1.13;;
76459;SDS011;65299;46.084;18.762;2023-07-31T11:56:47;1.88;;;1.00;;
76459;SDS011;65299;46.084;18.762;2023-07-31T11:59:49;4.10;;;1.10;;
76459;SDS011;65299;46.084;18.762;2023-07-31T12:02:51;2.63;;;1.00;;
76459;SDS011;65299;46.084;18.762;2023-07-31T12:05:52;1.70;;;0.90;;
76459;SDS011;65299;46.084;18.762;2023-07-31T12:08:53;3.25;;;0.98;;
76459;SDS011;65299;46.084;18.762;2023-07-31T12:12:01;2.08;;;0.90;;
76459;SDS011;65299;46.084;18.762;2023-07-31T12:15:03;2.03;;;0.88;;
76459;SDS011;65299;46.084;18.762;2023-07-31T12:18:18;2.65;;;1.20;;
76459;SDS011;65299;46.084;18.762;2023-07-31T12:21:20;2.60;;;1.10;;
76459;SDS011;65299;46.084;18.762;2023-07-31T12:24:21;1.67;;;1.00;;
76459;SDS011;65299;46.084;18.762;2023-07-31T12:27:21;3.27;;;1.00;;
76459;SDS011;65299;46.084;18.762;2023-07-31T12:30:28;2.90;;;1.15;;
76459;SDS011;65299;46.084;18.762;2023-07-31T12:33:33;3.15;;;1.02;;
76459;SDS011;65299;46.084;18.762;2023-07-31T12:36:35;5.47;;;1.25;;
76459;SDS011;65299;46.084;18.762;2023-07-31T12:39:36;2.20;;;0.93;;
76459;SDS011;65299;46.084;18.762;2023-07-31T12:42:36;3.20;;;1.40;;
76459;SDS011;65299;46.084;18.762;2023-07-31T12:45:37;2.83;;;1.00;;
76459;SDS011;65299;46.084;18.762;2023-07-31T12:48:38;2.47;;;1.10;;
76459;SDS011;65299;46.084;18.762;2023-07-31T12:51:39;3.03;;;1.10;;
76459;SDS011;65299;46.084;18.762;2023-07-31T12:54:39;3.33;;;1.10;;
76459;SDS011;65299;46.084;18.762;2023-07-31T12:57:39;1.70;;;1.02;;
76459;SDS011;65299;46.084;18.762;2023-07-31T13:00:41;2.13;;;1.10;;
76459;SDS011;65299;46.084;18.762;2023-07-31T13:03:42;1.23;;;1.00;;
76459;SDS011;65299;46.084;18.762;2023-07-31T13:06:43;2.37;;;0.90;;
76459;SDS011;65299;46.084;18.762;2023-07-31T13:09:43;2.00;;;1.40;;
76459;SDS011;65299;46.084;18.762;2023-07-31T13:12:43;2.57;;;1.30;;
76459;SDS011;65299;46.084;18.762;2023-07-31T13:15:44;3.30;;;1.20;;
76459;SDS011;65299;46.084;18.762;2023-07-31T13:18:45;3.70;;;1.10;;
76459;SDS011;65299;46.084;18.762;2023-07-31T13:21:45;3.37;;;1.20;;
76459;SDS011;65299;46.084;18.762;2023-07-31T13:24:46;1.77;;;0.90;;
76459;SDS011;65299;46.084;18.762;2023-07-31T13:27:46;1.77;;;0.75;;
76459;SDS011;65299;46.084;18.762;2023-07-31T13:30:47;2.10;;;0.90;;
76459;SDS011;65299;46.084;18.762;2023-07-31T13:33:47;3.70;;;1.33;;
76459;SDS011;65299;46.084;18.762;2023-07-31T13:36:47;1.70;;;1.10;;
76459;SDS011;65299;46.084;18.762;2023-07-31T13:39:48;1.73;;;1.10;;
76459;SDS011;65299;46.084;18.762;2023-07-31T13:42:48;3.10;;;1.20;;
76459;SDS011;65299;46.084;18.762;2023-07-31T13:45:49;2.23;;;1.07;;
76459;SDS011;65299;46.084;18.762;2023-07-31T13:48:49;1.87;;;1.10;;
76459;SDS011;65299;46.084;18.762;2023-07-31T13:51:50;2.70;;;1.10;;
76459;SDS011;65299;46.084;18.762;2023-07-31T13:54:50;2.43;;;1.20;;
76459;SDS011;65299;46.084;18.762;2023-07-31T13:57:50;2.67;;;1.30;;
76459;SDS011;65299;46.084;18.762;2023-07-31T14:00:53;1.30;;;1.10;;
76459;SDS011;65299;46.084;18.762;2023-07-31T14:03:53;3.43;;;1.27;;
76459;SDS011;65299;46.084;18.762;2023-07-31T14:06:55;1.47;;;1.13;;
76459;SDS011;65299;46.084;18.762;2023-07-31T14:09:56;2.78;;;1.20;;
76459;SDS011;65299;46.084;18.762;2023-07-31T14:12:56;1.67;;;1.13;;
76459;SDS011;65299;46.084;18.762;2023-07-31T14:15:57;2.83;;;1.07;;
76459;SDS011;65299;46.084;18.762;2023-07-31T14:18:57;1.65;;;1.20;;
76459;SDS011;65299;46.084;18.762;2023-07-31T14:21:59;4.03;;;1.42;;
76459;SDS011;65299;46.084;18.762;2023-07-31T14:25:00;1.47;;;1.17;;
76459;SDS011;65299;46.084;18.762;2023-07-31T14:28:01;2.63;;;1.70;;
76459;SDS011;65299;46.084;18.762;2023-07-31T14:31:01;1.93;;;1.20;;
76459;SDS011;65299;46.084;18.762;2023-07-31T14:34:01;1.90;;;1.20;;
76459;SDS011;65299;46.084;18.762;2023-07-31T14:37:02;1.57;;;0.97;;
76459;SDS011;65299;46.084;18.762;2023-07-31T14:40:03;2.03;;;1.10;;
76459;SDS011;65299;46.084;18.762;2023-07-31T14:43:04;3.33;;;1.00;;
76459;SDS011;65299;46.084;18.762;2023-07-31T14:46:05;2.30;;;1.23;;
76459;SDS011;65299;46.084;18.762;2023-07-31T14:49:05;2.00;;;1.23;;
76459;SDS011;65299;46.084;18.762;2023-07-31T14:52:06;3.25;;;2.00;;
76459;SDS011;65299;46.084;18.762;2023-07-31T14:55:07;2.77;;;1.90;;
76459;SDS011;65299;46.084;18.762;2023-07-31T14:58:09;2.83;;;1.70;;
76459;SDS011;65299;46.084;18.762;2023-07-31T15:01:11;2.38;;;2.00;;
76459;SDS011;65299;46.084;18.762;2023-07-31T15:04:11;2.00;;;1.90;;
76459;SDS011;65299;46.084;18.762;2023-07-31T15:07:11;2.60;;;1.90;;
76459;SDS011;65299;46.084;18.762;2023-07-31T15:10:13;3.30;;;2.37;;
76459;SDS011;65299;46.084;18.762;2023-07-31T15:13:14;3.95;;;2.20;;
76459;SDS011;65299;46.084;18.762;2023-07-31T15:16:14;2.73;;;2.10;;
76459;SDS011;65299;46.084;18.762;2023-07-31T15:19:15;4.53;;;2.57;;
76459;SDS011;65299;46.084;18.762;2023-07-31T15:22:15;5.15;;;2.38;;
76459;SDS011;65299;46.084;18.762;2023-07-31T15:25:16;2.60;;;2.07;;
76459;SDS011;65299;46.084;18.762;2023-07-31T15:28:17;3.23;;;2.27;;
76459;SDS011;65299;46.084;18.762;2023-07-31T15:31:18;4.68;;;2.08;;
76459;SDS011;65299;46.084;18.762;2023-07-31T15:34:18;3.30;;;1.97;;
76459;SDS011;65299;46.084;18.762;2023-07-31T15:37:19;1.80;;;1.55;;
76459;SDS011;65299;46.084;18.762;2023-07-31T15:40:19;3.33;;;1.30;;
76459;SDS011;65299;46.084;18.762;2023-07-31T15:43:20;3.13;;;1.47;;
76459;SDS011;65299;46.084;18.762;2023-07-31T15:46:21;2.25;;;1.48;;
76459;SDS011;65299;46.084;18.762;2023-07-31T15:49:21;1.73;;;1.63;;
76459;SDS011;65299;46.084;18.762;2023-07-31T15:52:22;3.00;;;1.53;;
76459;SDS011;65299;46.084;18.762;2023-07-31T15:55:22;3.88;;;1.50;;
76459;SDS011;65299;46.084;18.762;2023-07-31T15:58:24;2.07;;;1.50;;
76459;SDS011;65299;46.084;18.762;2023-07-31T16:01:25;2.08;;;1.30;;
76459;SDS011;65299;46.084;18.762;2023-07-31T16:04:25;2.40;;;1.80;;
76459;SDS011;65299;46.084;18.762;2023-07-31T16:07:26;3.00;;;1.90;;
76459;SDS011;65299;46.084;18.762;2023-07-31T16:10:26;2.00;;;1.17;;
76459;SDS011;65299;46.084;18.762;2023-07-31T16:13:27;5.53;;;1.50;;
76459;SDS011;65299;46.084;18.762;2023-07-31T16:16:27;1.97;;;1.40;;
76459;SDS011;65299;46.084;18.762;2023-07-31T16:19:28;5.50;;;1.17;;
76459;SDS011;65299;46.084;18.762;2023-07-31T16:22:28;2.67;;;1.20;;
76459;SDS011;65299;46.084;18.762;2023-07-31T16:25:28;2.30;;;1.70;;
76459;SDS011;65299;46.084;18.762;2023-07-31T16:28:29;1.80;;;1.27;;
76459;SDS011;65299;46.084;18.762;2023-07-31T16:31:30;4.35;;;1.58;;
76459;SDS011;65299;46.084;18.762;2023-07-31T16:34:30;3.60;;;1.57;;
76459;SDS011;65299;46.084;18.762;2023-07-31T16:37:31;2.53;;;1.38;;
76459;SDS011;65299;46.084;18.762;2023-07-31T16:40:32;1.93;;;1.10;;
76459;SDS011;65299;46.084;18.762;2023-07-31T16:43:32;4.67;;;1.40;;
76459;SDS011;65299;46.084;18.762;2023-07-31T16:46:32;2.03;;;1.40;;
76459;SDS011;65299;46.084;18.762;2023-07-31T16:49:33;3.47;;;1.40;;
76459;SDS011;65299;46.084;18.762;2023-07-31T16:52:33;5.30;;;1.30;;
76459;SDS011;65299;46.084;18.762;2023-07-31T16:55:33;1.83;;;1.00;;
76459;SDS011;65299;46.084;18.762;2023-07-31T16:58:35;2.42;;;1.30;;
76459;SDS011;65299;46.084;18.762;2023-07-31T17:01:35;2.40;;;1.60;;
76459;SDS011;65299;46.084;18.762;2023-07-31T17:04:36;1.77;;;1.23;;
76459;SDS011;65299;46.084;18.762;2023-07-31T17:07:36;4.73;;;1.40;;
76459;SDS011;65299;46.084;18.762;2023-07-31T17:10:36;1.67;;;1.20;;
76459;SDS011;65299;46.084;18.762;2023-07-31T17:13:37;2.53;;;1.50;;
76459;SDS011;65299;46.084;18.762;2023-07-31T17:16:37;1.70;;;1.20;;
76459;SDS011;65299;46.084;18.762;2023-07-31T17:19:38;3.50;;;1.50;;
76459;SDS011;65299;46.084;18.762;2023-07-31T17:22:38;2.00;;;1.40;;
76459;SDS011;65299;46.084;18.762;2023-07-31T17:25:38;4.45;;;1.70;;
76459;SDS011;65299;46.084;18.762;2023-07-31T17:28:39;2.47;;;1.93;;
76459;SDS011;65299;46.084;18.762;2023-07-31T17:31:40;2.57;;;1.83;;
76459;SDS011;65299;46.084;18.762;2023-07-31T17:34:41;5.18;;;1.77;;
76459;SDS011;65299;46.084;18.762;2023-07-31T17:37:43;3.63;;;1.60;;
76459;SDS011;65299;46.084;18.762;2023-07-31T17:40:43;3.30;;;1.90;;
76459;SDS011;65299;46.084;18.762;2023-07-31T17:43:43;3.10;;;1.70;;
76459;SDS011;65299;46.084;18.762;2023-07-31T17:46:45;4.22;;;1.58;;
76459;SDS011;65299;46.084;18.762;2023-07-31T17:49:47;5.47;;;1.73;;
76459;SDS011;65299;46.084;18.762;2023-07-31T17:52:47;6.20;;;1.80;;
76459;SDS011;65299;46.084;18.762;2023-07-31T17:55:48;6.27;;;1.90;;
76459;SDS011;65299;46.084;18.762;2023-07-31T17:58:48;5.53;;;1.80;;
76459;SDS011;65299;46.084;18.762;2023-07-31T18:01:49;5.63;;;1.67;;
76459;SDS011;65299;46.084;18.762;2023-07-31T18:04:49;5.40;;;2.27;;
76459;SDS011;65299;46.084;18.762;2023-07-31T18:07:49;4.90;;;1.70;;
76459;SDS011;65299;46.084;18.762;2023-07-31T18:10:50;2.92;;;1.90;;
76459;SDS011;65299;46.084;18.762;2023-07-31T18:13:50;5.67;;;1.90;;
76459;SDS011;65299;46.084;18.762;2023-07-31T18:16:51;4.40;;;1.80;;
76459;SDS011;65299;46.084;18.762;2023-07-31T18:19:51;5.53;;;1.90;;
76459;SDS011;65299;46.084;18.762;2023-07-31T18:22:52;3.53;;;1.90;;
76459;SDS011;65299;46.084;18.762;2023-07-31T18:25:52;4.20;;;2.30;;
76459;SDS011;65299;46.084;18.762;2023-07-31T18:28:52;5.50;;;1.90;;
76459;SDS011;65299;46.084;18.762;2023-07-31T18:31:53;3.00;;;1.70;;
76459;SDS011;65299;46.084;18.762;2023-07-31T18:34:53;3.67;;;1.80;;
76459;SDS011;65299;46.084;18.762;2023-07-31T18:37:54;4.93;;;2.50;;
76459;SDS011;65299;46.084;18.762;2023-07-31T18:40:54;3.60;;;1.80;;
76459;SDS011;65299;46.084;18.762;2023-07-31T18:43:55;5.17;;;2.03;;
76459;SDS011;65299;46.084;18.762;2023-07-31T18:46:56;4.13;;;2.13;;
76459;SDS011;65299;46.084;18.762;2023-07-31T18:49:56;3.60;;;2.10;;
76459;SDS011;65299;46.084;18.762;2023-07-31T18:52:57;7.07;;;2.90;;
76459;SDS011;65299;46.084;18.762;2023-07-31T18:55:57;10.17;;;6.10;;
76459;SDS011;65299;46.084;18.762;2023-07-31T18:58:58;11.17;;;8.53;;
76459;SDS011;65299;46.084;18.762;2023-07-31T19:02:00;10.63;;;6.63;;
76459;SDS011;65299;46.084;18.762;2023-07-31T19:05:01;9.75;;;7.32;;
76459;SDS011;65299;46.084;18.762;2023-07-31T19:08:01;9.30;;;6.13;;
76459;SDS011;65299;46.084;18.762;2023-07-31T19:11:04;5.97;;;4.75;;
76459;SDS011;65299;46.084;18.762;2023-07-31T19:14:05;9.33;;;5.27;;
76459;SDS011;65299;46.084;18.762;2023-07-31T19:17:05;16.00;;;9.90;;
76459;SDS011;65299;46.084;18.762;2023-07-31T19:20:06;12.48;;;7.85;;
76459;SDS011;65299;46.084;18.762;2023-07-31T19:23:07;8.60;;;4.75;;
76459;SDS011;65299;46.084;18.762;2023-07-31T19:26:07;6.63;;;4.20;;
76459;SDS011;65299;46.084;18.762;2023-07-31T19:29:09;6.82;;;4.30;;
76459;SDS011;65299;46.084;18.762;2023-07-31T19:32:11;10.07;;;6.57;;
76459;SDS011;65299;46.084;18.762;2023-07-31T19:35:14;16.13;;;11.95;;
76459;SDS011;65299;46.084;18.762;2023-07-31T19:38:14;15.70;;;11.20;;
76459;SDS011;65299;46.084;18.762;2023-07-31T19:41:15;15.30;;;8.13;;
76459;SDS011;65299;46.084;18.762;2023-07-31T19:44:15;11.43;;;7.37;;
76459;SDS011;65299;46.084;18.762;2023-07-31T19:47:16;9.97;;;5.93;;
76459;SDS011;65299;46.084;18.762;2023-07-31T19:50:16;7.93;;;5.67;;
76459;SDS011;65299;46.084;18.762;2023-07-31T19:53:17;10.15;;;5.20;;
76459;SDS011;65299;46.084;18.762;2023-07-31T19:56:17;8.70;;;5.33;;
76459;SDS011;65299;46.084;18.762;2023-07-31T19:59:18;7.53;;;4.97;;
76459;SDS011;65299;46.084;18.762;2023-07-31T20:02:19;7.40;;;4.40;;
76459;SDS011;65299;46.084;18.762;2023-07-31T20:05:19;6.67;;;3.37;;
76459;SDS011;65299;46.084;18.762;2023-07-31T20:08:19;7.32;;;2.80;;
76459;SDS011;65299;46.084;18.762;2023-07-31T20:11:20;4.97;;;3.10;;
76459;SDS011;65299;46.084;18.762;2023-07-31T20:14:20;5.23;;;3.40;;
76459;SDS011;65299;46.084;18.762;2023-07-31T20:17:21;5.10;;;3.00;;
76459;SDS011;65299;46.084;18.762;2023-07-31T20:20:23;4.28;;;2.63;;
76459;SDS011;65299;46.084;18.762;2023-07-31T20:23:23;8.05;;;3.45;;
76459;SDS011;65299;46.084;18.762;2023-07-31T20:26:24;5.50;;;2.43;;
76459;SDS011;65299;46.084;18.762;2023-07-31T20:29:24;3.97;;;2.47;;
76459;SDS011;65299;46.084;18.762;2023-07-31T20:32:25;7.10;;;3.25;;
76459;SDS011;65299;46.084;18.762;2023-07-31T20:35:25;4.90;;;3.20;;
76459;SDS011;65299;46.084;18.762;2023-07-31T20:38:25;5.73;;;2.87;;
76459;SDS011;65299;46.084;18.762;2023-07-31T20:41:26;5.67;;;2.93;;
76459;SDS011;65299;46.084;18.762;2023-07-31T20:44:26;5.00;;;3.15;;
76459;SDS011;65299;46.084;18.762;2023-07-31T20:47:27;6.37;;;3.20;;
76459;SDS011;65299;46.084;18.762;2023-07-31T20:50:27;8.50;;;3.03;;
76459;SDS011;65299;46.084;18.762;2023-07-31T20:53:29;7.28;;;2.92;;
76459;SDS011;65299;46.084;18.762;2023-07-31T20:56:30;7.30;;;3.42;;
76459;SDS011;65299;46.084;18.762;2023-07-31T20:59:30;4.60;;;2.60;;
76459;SDS011;65299;46.084;18.762;2023-07-31T21:02:31;4.83;;;2.60;;
76459;SDS011;65299;46.084;18.762;2023-07-31T21:05:31;7.10;;;3.27;;
76459;SDS011;65299;46.084;18.762;2023-07-31T21:08:31;7.65;;;3.22;;
76459;SDS011;65299;46.084;18.762;2023-07-31T21:11:32;4.93;;;2.47;;
76459;SDS011;65299;46.084;18.762;2023-07-31T21:14:33;5.25;;;2.90;;
76459;SDS011;65299;46.084;18.762;2023-07-31T21:17:33;4.43;;;2.70;;
76459;SDS011;65299;46.084;18.762;2023-07-31T21:20:35;3.20;;;2.50;;
76459;SDS011;65299;46.084;18.762;2023-07-31T21:23:37;2.95;;;2.58;;
76459;SDS011;65299;46.084;18.762;2023-07-31T21:26:37;4.67;;;2.60;;
76459;SDS011;65299;46.084;18.762;2023-07-31T21:29:37;5.37;;;2.43;;
76459;SDS011;65299;46.084;18.762;2023-07-31T21:32:38;5.90;;;2.77;;
76459;SDS011;65299;46.084;18.762;2023-07-31T21:35:38;4.90;;;2.80;;
76459;SDS011;65299;46.084;18.762;2023-07-31T21:38:38;5.63;;;2.80;;
76459;SDS011;65299;46.084;18.762;2023-07-31T21:41:39;4.97;;;2.55;;
76459;SDS011;65299;46.084;18.762;2023-07-31T21:44:39;6.20;;;2.70;;
76459;SDS011;65299;46.084;18.762;2023-07-31T21:47:41;5.32;;;3.00;;
76459;SDS011;65299;46.084;18.762;2023-07-31T21:50:41;4.37;;;3.10;;
76459;SDS011;65299;46.084;18.762;2023-07-31T21:53:42;6.22;;;2.70;;
76459;SDS011;65299;46.084;18.762;2023-07-31T21:56:43;5.57;;;2.93;;
76459;SDS011;65299;46.084;18.762;2023-07-31T21:59:43;6.40;;;2.70;;
76459;SDS011;65299;46.084;18.762;2023-07-31T22:02:43;6.60;;;2.93;;
76459;SDS011;65299;46.084;18.762;2023-07-31T22:05:44;4.53;;;3.10;;
76459;SDS011;65299;46.084;18.762;2023-07-31T22:08:44;4.50;;;3.00;;
76459;SDS011;65299;46.084;18.762;2023-07-31T22:11:45;4.20;;;2.63;;
76459;SDS011;65299;46.084;18.762;2023-07-31T22:14:45;4.33;;;2.70;;
76459;SDS011;65299;46.084;18.762;2023-07-31T22:17:45;5.82;;;2.88;;
76459;SDS011;65299;46.084;18.762;2023-07-31T22:20:49;5.77;;;2.60;;
76459;SDS011;65299;46.084;18.762;2023-07-31T22:23:49;3.25;;;2.42;;
76459;SDS011;65299;46.084;18.762;2023-07-31T22:26:50;4.57;;;2.40;;
76459;SDS011;65299;46.084;18.762;2023-07-31T22:29:50;6.23;;;2.50;;
76459;SDS011;65299;46.084;18.762;2023-07-31T22:32:51;3.20;;;2.37;;
76459;SDS011;65299;46.084;18.762;2023-07-31T22:35:51;4.70;;;2.40;;
76459;SDS011;65299;46.084;18.762;2023-07-31T22:38:51;4.50;;;2.60;;
76459;SDS011;65299;46.084;18.762;2023-07-31T22:41:52;6.10;;;2.67;;
76459;SDS011;65299;46.084;18.762;2023-07-31T22:44:52;5.03;;;3.03;;
76459;SDS011;65299;46.084;18.762;2023-07-31T22:47:53;4.40;;;2.70;;
76459;SDS011;65299;46.084;18.762;2023-07-31T22:50:53;3.83;;;2.20;;
76459;SDS011;65299;46.084;18.762;2023-07-31T22:53:53;3.87;;;2.97;;
76459;SDS011;65299;46.084;18.762;2023-07-31T22:56:54;3.47;;;2.27;;
76459;SDS011;65299;46.084;18.762;2023-07-31T22:59:55;3.88;;;2.42;;
76459;SDS011;65299;46.084;18.762;2023-07-31T23:02:57;6.35;;;2.80;;
76459;SDS011;65299;46.084;18.762;2023-07-31T23:05:57;5.37;;;2.77;;
76459;SDS011;65299;46.084;18.762;2023-07-31T23:08:58;6.90;;;2.40;;
76459;SDS011;65299;46.084;18.762;2023-07-31T23:11:58;3.37;;;2.80;;
76459;SDS011;65299;46.084;18.762;2023-07-31T23:15:00;4.93;;;2.83;;
76459;SDS011;65299;46.084;18.762;2023-07-31T23:18:00;3.27;;;2.50;;
76459;SDS011;65299;46.084;18.762;2023-07-31T23:21:00;4.83;;;2.60;;
76459;SDS011;65299;46.084;18.762;2023-07-31T23:24:01;3.70;;;2.70;;